»·PEaware :: WAT380 KBFL-KRNO

WAT380 :: KBFL-KRNO

FLIGHT INFORMATION

Flight Status: Arrived
Operator:
Walker Air Transport
More flights by this operator :: More flights under this callsign
Pilot: Spencer M. (27733)
Aircraft: BEECH AIRCRAFT SUPER KING AIR 350
(B350)
More flights by this aircraft type
Origin: KBFL Meadows
United States
Destination: KRNO Reno/Tahoe Intl
United States
More flights between these airports :: More routes between these airports
Route: +MEADO4 EHF V23 FRAME T331 NTELL MARRI V165 FMG
File this flight plan on PilotEdge
Remarks:
Altitude:
(Current/Filed)
22,000ft
Speed:
(Current/Filed)
260kts
Departed: 08-Nov-20 09:38 AM
Arrived: 08-Nov-20 10:56 AM
Distance/Time
Traveled:
246nm/1:18
Distance/Time
To Go:
Arrived

Flight Plot

Page will automatically refresh every two minutes.

Flight plan parsing failed; only flown route is shown


Map Options




Map Legend


Flown Route
Filed Route
Departure Airport
Arrival Airport
Navaid (VOR, NDB)
Fix

Horizontal Profiles

Position Reports

Time Latitude Longitude Heading Altitude Ground
Speed
08-Nov-20 09:18 35.430660 -119.047229 226 510ft 0kts
08-Nov-20 09:18 35.430660 -119.047229 226 510ft 0kts
08-Nov-20 09:20 35.430660 -119.047229 226 510ft 0kts
08-Nov-20 09:20 35.430660 -119.047229 226 510ft 0kts
08-Nov-20 09:22 35.430660 -119.047229 226 510ft 0kts
08-Nov-20 09:22 35.430660 -119.047229 226 510ft 0kts
08-Nov-20 09:23 35.430660 -119.047229 226 510ft 0kts
08-Nov-20 09:24 35.430660 -119.047229 226 510ft 0kts
08-Nov-20 09:25 35.430660 -119.047229 226 510ft 0kts
08-Nov-20 09:26 35.430660 -119.047228 226 510ft 0kts
08-Nov-20 09:27 35.430660 -119.047228 226 510ft 0kts
08-Nov-20 09:28 35.430660 -119.047229 226 510ft 0kts
08-Nov-20 09:29 35.430660 -119.047228 226 510ft 0kts
08-Nov-20 09:30 35.430659 -119.047229 226 510ft 0kts
08-Nov-20 09:31 35.430659 -119.047229 226 510ft 0kts
08-Nov-20 09:32 35.428742 -119.047776 134 510ft 11kts
08-Nov-20 09:33 35.426186 -119.044762 173 510ft 10kts
08-Nov-20 09:34 35.425784 -119.045037 223 510ft 0kts
08-Nov-20 09:35 35.425784 -119.045037 223 510ft 0kts
08-Nov-20 09:36 35.425784 -119.045037 223 510ft 0kts
08-Nov-20 09:37 35.433480 -119.055849 315 565ft 132kts
08-Nov-20 09:38 35.467604 -119.096187 315 1738ft 193kts
08-Nov-20 09:39 35.508191 -119.141270 315 3021ft 210kts
08-Nov-20 09:40 35.554758 -119.192866 315 3349ft 226kts
08-Nov-20 09:41 35.597310 -119.241465 312 4838ft 193kts
08-Nov-20 09:42 35.634316 -119.287717 311 6481ft 186kts
08-Nov-20 09:43 35.671904 -119.336425 310 8146ft 189kts
08-Nov-20 09:44 35.707187 -119.383842 309 9721ft 187kts
08-Nov-20 09:45 35.741348 -119.430324 309 11289ft 179kts
08-Nov-20 09:46 35.773974 -119.474254 309 12748ft 173kts
08-Nov-20 09:47 35.810777 -119.510834 342 14107ft 186kts
08-Nov-20 09:48 35.860337 -119.519023 333 15452ft 172kts
08-Nov-20 09:49 35.904169 -119.536290 327 16746ft 161kts
08-Nov-20 09:50 35.947310 -119.553538 329 17875ft 163kts
08-Nov-20 09:51 35.990372 -119.568662 329 18985ft 159kts
08-Nov-20 09:52 36.032098 -119.583229 330 19997ft 157kts
08-Nov-20 09:53 36.079813 -119.600180 333 19990ft 197kts
08-Nov-20 09:54 36.135955 -119.619119 334 19989ft 218kts
08-Nov-20 09:55 36.195896 -119.639711 334 19988ft 229kts
08-Nov-20 09:56 36.258094 -119.661218 334 20002ft 234kts
08-Nov-20 09:57 36.321275 -119.683241 334 19986ft 239kts
08-Nov-20 09:58 36.385518 -119.705710 334 19995ft 241kts
08-Nov-20 09:59 36.450375 -119.728533 334 19988ft 243kts
08-Nov-20 10:00 36.515336 -119.751419 334 19992ft 243kts
08-Nov-20 10:01 36.580674 -119.774479 335 19980ft 244kts
08-Nov-20 10:02 36.645972 -119.797472 335 20001ft 244kts
08-Nov-20 10:03 36.711470 -119.820780 335 19998ft 247kts
08-Nov-20 10:04 36.777597 -119.844240 335 19999ft 248kts
08-Nov-20 10:05 36.844228 -119.867987 336 19994ft 250kts
08-Nov-20 10:06 36.912536 -119.886753 350 20014ft 262kts
08-Nov-20 10:07 36.986440 -119.879747 356 19998ft 268kts
08-Nov-20 10:08 37.060933 -119.871676 356 19998ft 269kts
08-Nov-20 10:09 37.135593 -119.864273 356 19998ft 271kts
08-Nov-20 10:10 37.211402 -119.856654 357 19958ft 274kts
08-Nov-20 10:11 37.287652 -119.848956 358 19895ft 277kts
08-Nov-20 10:12 37.364634 -119.841293 358 19901ft 278kts
08-Nov-20 10:13 37.441514 -119.833513 358 19894ft 278kts
08-Nov-20 10:14 37.518356 -119.825783 359 19895ft 278kts
08-Nov-20 10:15 37.595459 -119.818020 359 19896ft 279kts
08-Nov-20 10:16 37.672335 -119.810204 359 19996ft 277kts
08-Nov-20 10:17 37.749432 -119.802468 359 19998ft 279kts
08-Nov-20 10:18 37.826902 -119.794485 359 19996ft 279kts
08-Nov-20 10:19 37.904261 -119.786661 0 19982ft 280kts
08-Nov-20 10:20 37.981843 -119.778691 0 20006ft 279kts
08-Nov-20 10:21 38.059246 -119.770819 0 20008ft 280kts
08-Nov-20 10:22 38.136710 -119.762890 2 19999ft 282kts
08-Nov-20 10:23 38.215285 -119.754796 2 20010ft 286kts
08-Nov-20 10:24 38.294841 -119.746685 2 19991ft 288kts
08-Nov-20 10:25 38.374925 -119.738403 2 19961ft 289kts
08-Nov-20 10:26 38.454627 -119.730152 2 19988ft 288kts
08-Nov-20 10:27 38.534180 -119.721922 2 19990ft 287kts
08-Nov-20 10:28 38.613867 -119.713724 2 19990ft 288kts
08-Nov-20 10:29 38.693750 -119.705414 2 19988ft 289kts
08-Nov-20 10:30 38.773823 -119.696992 2 19715ft 292kts
08-Nov-20 10:31 38.856683 -119.692407 1 18181ft 303kts
08-Nov-20 10:32 38.938644 -119.687877 0 16564ft 284kts
08-Nov-20 10:33 39.012039 -119.684363 359 16026ft 241kts
08-Nov-20 10:34 39.075269 -119.681062 1 16069ft 223kts
08-Nov-20 10:35 39.138007 -119.677123 0 15475ft 234kts
08-Nov-20 10:36 39.205235 -119.673095 1 14419ft 249kts
08-Nov-20 10:37 39.275785 -119.668894 1 13353ft 257kts
08-Nov-20 10:38 39.351280 -119.664420 1 12211ft 259kts
08-Nov-20 10:39 39.425747 -119.660098 1 11130ft 253kts
08-Nov-20 10:40 39.496619 -119.656010 1 10110ft 247kts
08-Nov-20 10:41 39.563988 -119.652147 1 9102ft 239kts
08-Nov-20 10:42 39.625722 -119.648842 1 8961ft 206kts
08-Nov-20 10:43 39.679714 -119.645978 1 8706ft 183kts
08-Nov-20 10:44 39.727252 -119.643484 0 8588ft 162kts
08-Nov-20 10:45 39.774204 -119.640766 1 8593ft 174kts
08-Nov-20 10:46 39.814392 -119.666413 289 8416ft 181kts
08-Nov-20 10:47 39.815538 -119.731781 264 8389ft 182kts
08-Nov-20 10:48 39.775815 -119.765273 179 7782ft 191kts
08-Nov-20 10:49 39.727655 -119.766275 182 7789ft 167kts
08-Nov-20 10:50 39.681972 -119.765977 180 7784ft 155kts
08-Nov-20 10:51 39.639385 -119.765519 183 7140ft 146kts
08-Nov-20 10:52 39.599903 -119.765887 181 6130ft 136kts
08-Nov-20 10:53 39.562161 -119.766548 181 5494ft 135kts
08-Nov-20 10:54 39.525730 -119.766720 180 4727ft 127kts
08-Nov-20 10:55 39.498762 -119.766797 181 4420ft 32kts
08-Nov-20 10:57 39.497297 -119.765710 88 4420ft 0kts

Navigation Log

Ident Type
Flight plan parsing failed, navigation log unavailable